This is the latest recevied weather packets stored in our database for station/object KI4MRC. If no packets are shown the sender has not sent any weather packets the latest 10 day(s).
| Time | Temp. | Humidity | Pressure | Rain* | Wind** | Luminosity | Snow |
|---|---|---|---|---|---|---|---|
| 1777913512 | 25.56° C | 76% | 1015.6 hPa | 0 mm | - | 493 W/m² | - |
| 1777913209 | 25° C | 78% | 1015.7 hPa | 0 mm | - | 394 W/m² | - |
| 1777912602 | 25° C | 77% | 1015.6 hPa | 0 mm | - | 177 W/m² | - |
| 1777912298 | 25° C | 78% | 1015.7 hPa | 0 mm | - | 152 W/m² | - |
| 1777911993 | 25.56° C | 79% | 1015.8 hPa | 0 mm | - | 207 W/m² | - |
| 1777908662 | 24.44° C | 88% | 1015.7 hPa | 0 mm | - | 473 W/m² | - |
| 1777908055 | 25.56° C | 84% | 1015.7 hPa | 0 mm | - | 170 W/m² | - |
| 1777907445 | 25.56° C | 83% | 1015.8 hPa | 0 mm | - | 473 W/m² | - |
| 1777907143 | 25.56° C | 84% | 1015.8 hPa | 0 mm | - | 748 W/m² | - |
| 1777906840 | 25° C | 87% | 1015.6 hPa | 0 mm | - | 527 W/m² | - |
| 1777905323 | 23.33° C | 92% | 1015.6 hPa | 0 mm | - | 257 W/m² | - |
| 1777901687 | 23.89° C | 91% | 1015.4 hPa | 0 mm | - | 109 W/m² | - |
| 1777901384 | 23.89° C | 91% | 1015.3 hPa | 0 mm | - | 164 W/m² | - |
| 1777901082 | 23.89° C | 91% | 1015.4 hPa | 0 mm | - | 132 W/m² | - |
| 1777900779 | 23.89° C | 90% | 1015.1 hPa | 0 mm | - | 93 W/m² | - |
| 1777900476 | 23.89° C | 89% | 1015 hPa | 0 mm | - | 78 W/m² | - |
| 1777900173 | 23.89° C | 90% | 1015 hPa | 0 mm | - | 203 W/m² | - |
| 1777899869 | 23.33° C | 92% | 1014.8 hPa | 0 mm | - | 200 W/m² | - |
| 1777899264 | 23.89° C | 92% | 1014.7 hPa | 0 mm | - | 123 W/m² | - |
| 1777898355 | 23.33° C | 96% | 1014.7 hPa | 0 mm | - | 108 W/m² | - |
| 1777898053 | 23.33° C | 96% | 1014.3 hPa | 0 mm | - | 104 W/m² | - |
| 1777897749 | 23.33° C | 97% | 1014.5 hPa | 0 mm | - | 81 W/m² | - |
| 1777897445 | 22.78° C | 97% | 1014.3 hPa | 0 mm | - | 97 W/m² | - |
| 1777897141 | 22.78° C | 98% | 1014.3 hPa | 0 mm | - | 88 W/m² | - |
| 1777896837 | 22.78° C | 98% | 1014.2 hPa | 0 mm | - | 78 W/m² | - |
* Rain latest hour (hover to see other rain measurements)
** Current wind speed in m/s (hover to see current wind gust speed)